Time;durP1;ratioP1;P1;durP2;ratioP2;P2;SDS_P1;SDS_P2;PMS_P1;PMS_P2;Temp;Humidity;BMP_temperature;BMP_pressure;BME280_temperature;BME280_humidity;BME280_pressure;Samples;Min_cycle;Max_cycle;Signal;HPM_P1;HPM_P2
2022/01/18 00:01:31;;;;;;;2.17;1.87;;;-0.90;99.90;-2.20;100907;;;;573131;245;25117;-78
2022/01/18 00:04:00;;;;;;;2.27;1.30;;;-0.90;99.90;-2.20;100923;;;;573595;246;24154;-78
2022/01/18 00:06:28;;;;;;;5.27;1.90;;;-1.00;99.90;-2.20;100918;;;;573154;246;25129;-78
2022/01/18 00:08:57;;;;;;;4.13;1.47;;;-1.00;99.90;-2.20;100915;;;;563207;252;24084;-77
2022/01/18 00:11:28;;;;;;;9.63;1.80;;;-0.90;99.90;-2.20;100915;;;;559081;249;24130;-78
2022/01/18 00:14:00;;;;;;;17.70;1.77;;;-1.00;99.90;-2.20;100920;;;;564196;251;24177;-78
2022/01/18 00:18:53;;;;;;;5.53;1.70;;;-1.00;99.90;-2.30;100933;;;;562067;250;24121;-77
2022/01/18 00:24:06;;;;;;;6.00;1.93;;;-1.00;99.90;-2.20;100937;;;;562348;250;24076;-78
2022/01/18 00:26:33;;;;;;;2.10;1.30;;;-1.00;99.90;-2.30;100942;;;;561047;251;24120;-76
2022/01/18 00:29:05;;;;;;;11.23;2.63;;;-1.10;99.90;-2.30;100931;;;;563381;251;24155;-78
2022/01/18 00:31:46;;;;;;;4.33;1.63;;;-1.10;99.90;-2.30;100935;;;;562351;250;24130;-79
2022/01/18 00:34:14;;;;;;;4.23;2.40;;;-1.10;99.90;-2.30;100942;;;;572000;249;24155;-78
2022/01/18 00:36:41;;;;;;;4.85;2.58;;;-1.10;99.90;-2.40;100948;;;;562427;247;35242;-77
2022/01/18 00:39:08;;;;;;;4.80;2.40;;;-1.20;99.90;-2.40;100946;;;;570773;248;24152;-78
2022/01/18 00:41:36;;;;;;;3.57;1.53;;;-1.20;99.90;-2.40;100932;;;;563274;252;24117;-77
2022/01/18 00:44:09;;;;;;;3.13;0.90;;;-1.10;99.90;-2.30;100930;;;;559613;250;24125;-78
2022/01/18 00:46:33;;;;;;;1.00;1.00;;;-1.10;99.90;-2.30;100926;;;;563716;252;24098;-78
2022/01/18 00:49:02;;;;;;;2.43;1.23;;;-1.10;99.90;-2.30;100935;;;;551828;258;24130;-78
2022/01/18 00:51:35;;;;;;;0.70;0.70;;;-1.10;99.90;-2.20;100934;;;;551932;260;24144;-78
2022/01/18 00:54:00;;;;;;;2.90;1.00;;;-1.10;99.90;-2.30;100943;;;;572456;250;24180;-78
2022/01/18 00:56:31;;;;;;;5.60;1.87;;;-1.00;99.90;-2.30;100945;;;;562833;248;24141;-77
2022/01/18 00:58:58;;;;;;;3.67;1.50;;;-3.90;99.90;-2.30;100938;;;;562318;251;24107;-80
2022/01/18 01:01:24;;;;;;;2.57;1.80;;;-1.10;99.90;-2.40;100947;;;;562123;251;25138;-78
2022/01/18 01:03:54;;;;;;;4.77;1.77;;;-1.10;99.90;-2.40;100946;;;;564818;252;24169;-78
2022/01/18 01:06:20;;;;;;;6.17;2.53;;;-1.10;99.90;-2.30;100940;;;;563845;249;24092;-78
2022/01/18 01:08:48;;;;;;;7.37;1.97;;;-1.10;99.90;-2.30;100939;;;;564145;252;24134;-78
2022/01/18 01:11:18;;;;;;;6.80;2.57;;;-1.10;99.90;-2.40;100947;;;;567563;252;24102;-80
2022/01/18 01:13:45;;;;;;;3.53;2.23;;;-1.10;99.90;-2.40;100953;;;;564283;252;24108;-80
2022/01/18 01:16:33;;;;;;;5.20;2.10;;;-1.20;99.90;-2.40;100971;;;;563461;249;24096;-80
2022/01/18 01:18:50;;;;;;;6.13;2.40;;;-1.20;99.90;-2.40;100971;;;;562950;252;25141;-80
2022/01/18 01:32:59;;;;;;;5.87;2.33;;;-1.20;99.90;-2.40;100985;;;;564122;249;24107;-77
2022/01/18 01:35:12;;;;;;;4.77;2.60;;;-1.20;99.90;-2.40;100994;;;;570142;251;24083;-77
2022/01/18 01:45:27;;;;;;;6.33;2.03;;;-1.10;99.90;-2.30;100992;;;;551336;255;26352;-78
2022/01/18 01:47:58;;;;;;;5.87;2.23;;;-1.10;99.90;-2.30;100996;;;;550417;256;24159;-79
2022/01/18 01:50:26;;;;;;;2.93;1.80;;;-1.10;99.90;-2.30;101009;;;;570391;247;24157;-78
2022/01/18 01:52:55;;;;;;;4.07;1.73;;;-1.10;99.90;-2.30;101018;;;;572889;245;24099;-77
2022/01/18 01:55:19;;;;;;;6.00;1.53;;;-1.10;99.90;-2.30;101015;;;;571261;247;24079;-79
2022/01/18 01:57:47;;;;;;;3.53;1.67;;;-1.10;99.90;-2.30;101017;;;;579345;243;24087;-77
2022/01/18 02:00:18;;;;;;;4.63;1.97;;;-1.10;99.90;-2.30;101022;;;;574917;247;24124;-79
2022/01/18 02:02:46;;;;;;;10.63;2.10;;;-1.10;99.90;-2.30;101024;;;;566254;250;24083;-77
2022/01/18 02:05:14;;;;;;;4.23;1.90;;;-1.10;99.90;-2.30;101026;;;;563597;249;24076;-79
2022/01/18 02:07:42;;;;;;;3.15;1.20;;;-1.10;99.90;-2.30;101026;;;;558467;250;35395;-78
2022/01/18 02:10:13;;;;;;;1.13;1.00;;;-1.10;99.90;-2.30;101025;;;;563934;250;24084;-77
2022/01/18 02:12:41;;;;;;;3.33;1.17;;;-1.10;99.90;-2.30;101031;;;;563439;250;24122;-78
2022/01/18 02:15:15;;;;;;;0.80;0.80;;;-1.10;99.90;-2.30;101029;;;;564944;249;24123;-78
2022/01/18 02:23:26;;;;;;;2.33;1.47;;;-1.10;99.90;-2.30;101041;;;;562052;252;24096;-78
2022/01/18 02:25:56;;;;;;;1.03;0.60;;;-1.10;99.90;-2.30;101038;;;;556701;254;24025;-78
2022/01/18 02:28:24;;;;;;;2.10;0.57;;;-1.00;99.90;-2.20;101042;;;;552185;256;24108;-79
2022/01/18 02:30:52;;;;;;;0.77;0.50;;;-1.10;99.90;-2.20;101048;;;;552553;251;24148;-78
2022/01/18 02:33:17;;;;;;;5.30;1.57;;;-1.00;99.90;-2.20;101057;;;;552486;251;24130;-78
2022/01/18 02:35:49;;;;;;;1.97;0.90;;;-1.10;99.90;-2.20;101058;;;;552686;255;24134;-77
2022/01/18 02:38:16;;;;;;;1.43;0.63;;;-1.10;99.90;-2.30;101054;;;;545860;259;24053;-79
2022/01/18 02:40:44;;;;;;;2.90;0.80;;;-1.10;99.90;-2.20;101056;;;;546643;259;24055;-77
2022/01/18 02:45:55;;;;;;;0.60;0.60;;;-1.10;99.90;-2.20;101050;;;;547260;259;24045;-78
2022/01/18 02:48:23;;;;;;;1.47;0.90;;;-1.00;99.90;-2.20;101065;;;;545348;259;24056;-77
2022/01/18 02:50:51;;;;;;;4.53;1.10;;;-1.00;99.90;-2.20;101062;;;;552588;252;24129;-77
2022/01/18 02:53:22;;;;;;;0.73;0.70;;;-1.00;99.90;-2.20;101068;;;;546517;259;24069;-77
2022/01/18 02:55:54;;;;;;;1.27;0.50;;;-1.00;99.90;-2.20;101081;;;;546302;259;24057;-78
2022/01/18 02:58:27;;;;;;;2.93;1.23;;;-1.10;99.90;-2.20;101074;;;;546085;257;24042;-80
2022/01/18 03:03:17;;;;;;;4.43;1.30;;;-1.00;99.90;-2.20;101081;;;;540376;256;35367;-80
2022/01/18 03:05:45;;;;;;;0.87;0.70;;;-1.00;99.90;-2.20;101081;;;;560590;251;24115;-77
2022/01/18 03:08:15;;;;;;;2.67;1.13;;;-1.00;99.90;-2.20;101091;;;;552615;256;24113;-79
2022/01/18 03:10:40;;;;;;;1.10;0.60;;;-1.00;99.90;-2.10;101072;;;;560489;250;24103;-80
2022/01/18 03:13:08;;;;;;;0.30;0.30;;;-0.80;99.90;-2.10;101071;;;;560587;250;24130;-78
2022/01/18 03:15:40;;;;;;;0.40;0.40;;;-0.90;99.90;-2.10;101069;;;;560814;256;24162;-77
2022/01/18 03:18:08;;;;;;;8.53;1.03;;;-0.90;99.90;-2.10;101077;;;;560343;256;24126;-77
2022/01/18 03:20:33;;;;;;;0.40;0.40;;;-0.80;99.90;-2.00;101088;;;;560117;250;25155;-79
2022/01/18 03:23:02;;;;;;;5.77;0.70;;;-0.90;99.90;-2.00;101091;;;;552450;255;24216;-77
2022/01/18 03:28:07;;;;;;;2.93;0.63;;;-0.80;99.90;-2.00;101094;;;;547888;258;25156;-78
2022/01/18 03:30:34;;;;;;;6.63;1.53;;;-0.80;99.90;-2.00;101107;;;;547314;259;27317;-77
2022/01/18 03:33:02;;;;;;;0.40;0.40;;;-0.90;99.90;-2.10;101109;;;;555166;258;24048;-77
2022/01/18 03:35:34;;;;;;;2.53;0.87;;;-0.80;99.90;-2.10;101113;;;;554943;258;24106;-76
2022/01/18 03:37:58;;;;;;;0.50;0.50;;;-0.80;99.90;-2.10;101096;;;;546690;259;24056;-77
2022/01/18 03:40:26;;;;;;;5.77;1.03;;;-0.90;99.90;-2.10;101113;;;;541516;261;24178;-77
2022/01/18 03:42:55;;;;;;;0.53;0.53;;;-0.90;99.90;-2.00;101106;;;;547068;259;24055;-77
2022/01/18 03:45:23;;;;;;;1.00;0.70;;;-0.80;99.90;-2.00;101107;;;;554896;258;24059;-77
2022/01/18 03:47:50;;;;;;;2.30;0.43;;;-0.90;99.90;-2.00;101117;;;;552703;253;24162;-77
2022/01/18 03:50:17;;;;;;;1.70;0.43;;;-0.80;99.90;-2.00;101114;;;;557517;253;24116;-78
2022/01/18 03:52:48;;;;;;;4.93;0.57;;;-0.80;99.90;-2.00;101119;;;;557609;252;24148;-80
2022/01/18 03:55:13;;;;;;;3.63;0.77;;;-0.80;99.90;-2.10;101124;;;;556010;253;24131;-79
2022/01/18 03:57:42;;;;;;;1.63;0.77;;;-0.80;99.90;-2.10;101129;;;;554725;253;24140;-81
2022/01/18 04:00:11;;;;;;;0.57;0.57;;;-0.90;99.90;-2.10;101132;;;;559531;253;24179;-80
2022/01/18 04:02:39;;;;;;;1.30;0.80;;;-0.80;99.90;-2.10;101140;;;;561182;251;24143;-80
2022/01/18 04:05:07;;;;;;;1.90;0.73;;;-0.90;99.90;-2.10;101135;;;;560576;252;24136;-78
2022/01/18 04:07:35;;;;;;;1.90;0.47;;;-0.90;99.90;-2.10;101138;;;;566255;249;25196;-82
2022/01/18 04:10:07;;;;;;;0.53;0.50;;;-0.90;99.90;-2.10;101143;;;;574193;248;24075;-79
2022/01/18 04:12:35;;;;;;;3.80;0.70;;;-0.90;99.90;-2.10;101153;;;;562850;249;24116;-80
2022/01/18 04:15:00;;;;;;;2.93;0.83;;;-0.90;99.90;-2.10;101152;;;;562823;250;24085;-80
2022/01/18 04:18:06;;;;;;;3.95;0.80;;;-1.10;99.90;-2.10;101157;;;;557033;249;35023;-81
2022/01/18 04:28:24;;;;;;;0.67;0.57;;;-0.90;99.90;-2.10;101163;;;;566056;250;24147;-77
2022/01/18 04:30:45;;;;;;;0.93;0.67;;;-1.00;99.90;-2.20;101178;;;;574115;244;24138;-79
2022/01/18 04:33:11;;;;;;;1.43;0.93;;;-0.90;99.90;-2.20;101174;;;;574455;250;24109;-77
2022/01/18 04:35:42;;;;;;;0.93;0.23;;;-1.00;99.90;-2.20;101182;;;;574189;248;24164;-78
2022/01/18 04:38:07;;;;;;;0.40;0.40;;;-1.00;99.90;-2.20;101185;;;;570617;248;24090;-78
2022/01/18 04:40:38;;;;;;;2.87;1.40;;;-0.80;99.90;-2.20;101181;;;;575393;249;24095;-77
2022/01/18 04:43:37;;;;;;;0.40;0.40;;;-1.00;99.90;-2.20;101193;;;;570083;248;24096;-78
2022/01/18 04:48:30;;;;;;;0.80;0.80;;;-1.00;99.90;-2.20;101205;;;;563739;247;24077;-77
2022/01/18 04:51:02;;;;;;;1.20;1.10;;;-1.10;99.90;-2.20;101208;;;;567254;247;24070;-78
2022/01/18 04:53:31;;;;;;;3.23;1.30;;;-1.00;99.90;-2.20;101213;;;;569956;245;24103;-78
2022/01/18 04:56:04;;;;;;;5.20;1.40;;;-1.00;99.90;-2.20;101225;;;;568860;250;24109;-78
2022/01/18 04:58:29;;;;;;;1.27;1.17;;;-1.00;99.90;-2.20;101223;;;;568055;249;24081;-78
2022/01/18 05:01:00;;;;;;;3.60;0.80;;;-1.00;99.90;-2.20;101224;;;;573777;248;24113;-78
2022/01/18 05:03:24;;;;;;;4.30;1.00;;;-1.00;99.90;-2.30;101220;;;;570138;246;24151;-77
2022/01/18 05:05:56;;;;;;;1.40;0.90;;;-1.10;99.90;-2.30;101223;;;;572498;246;24103;-77
2022/01/18 05:08:21;;;;;;;2.10;1.30;;;-1.10;99.90;-2.30;101223;;;;581028;246;25146;-78
2022/01/18 05:10:55;;;;;;;1.20;0.93;;;-1.10;99.90;-2.30;101228;;;;581392;246;24030;-78
2022/01/18 05:16:07;;;;;;;3.17;1.07;;;-1.10;99.90;-2.30;101237;;;;572423;247;24095;-76
2022/01/18 05:21:11;;;;;;;1.80;1.30;;;-1.10;99.90;-2.40;101237;;;;563419;252;24463;-76
2022/01/18 05:23:23;;;;;;;5.33;1.50;;;-1.20;99.90;-2.40;101232;;;;570435;247;24126;-78
2022/01/18 05:25:51;;;;;;;2.43;1.27;;;-1.20;99.90;-2.40;101239;;;;571846;247;24089;-78
2022/01/18 05:28:19;;;;;;;3.60;1.10;;;-1.20;99.90;-2.40;101239;;;;579393;243;24069;-77
2022/01/18 05:30:50;;;;;;;3.85;1.45;;;-1.20;99.90;-2.40;101248;;;;574705;248;35067;-77
2022/01/18 05:33:15;;;;;;;1.53;1.43;;;-1.20;99.90;-2.40;101257;;;;562617;252;24145;-76
2022/01/18 05:35:43;;;;;;;1.30;1.23;;;-1.20;99.90;-2.40;101261;;;;570594;248;24100;-77
2022/01/18 05:38:12;;;;;;;1.27;1.17;;;-1.30;99.90;-2.50;101259;;;;579763;248;24110;-77
2022/01/18 05:40:40;;;;;;;1.13;0.93;;;-1.30;99.90;-2.50;101275;;;;571477;249;24095;-78
2022/01/18 05:43:08;;;;;;;1.40;0.70;;;-1.20;99.90;-2.50;101275;;;;571395;249;25163;-78
2022/01/18 05:45:36;;;;;;;5.62;2.00;;;-1.20;99.90;-2.40;101269;;;;574040;248;35016;-77
2022/01/18 05:48:04;;;;;;;2.70;1.10;;;-1.20;99.90;-2.40;101272;;;;575663;248;24062;-77
2022/01/18 05:50:32;;;;;;;1.77;1.20;;;-1.20;99.90;-2.40;101282;;;;585020;244;24138;-77
2022/01/18 05:53:00;;;;;;;6.47;2.62;;;-1.10;99.90;-2.30;101277;;;;570843;244;34993;-78
2022/01/18 05:55:28;;;;;;;3.23;1.97;;;-1.10;99.90;-2.30;101275;;;;584365;245;25090;-79
2022/01/18 05:57:56;;;;;;;3.10;1.70;;;-1.10;99.90;-2.30;101294;;;;584429;240;24060;-78
2022/01/18 06:00:26;;;;;;;5.57;1.37;;;-1.10;99.90;-2.30;101302;;;;584061;240;24038;-77
2022/01/18 06:03:03;;;;;;;2.83;1.40;;;-1.10;99.90;-2.30;101298;;;;584107;240;24034;-77
2022/01/18 06:08:09;;;;;;;5.93;2.10;;;-1.00;99.90;-2.30;101309;;;;563295;248;24127;-81
2022/01/18 06:10:34;;;;;;;3.27;1.27;;;-1.10;99.90;-2.20;101306;;;;561980;252;24073;-78
2022/01/18 06:13:03;;;;;;;6.37;2.55;;;-4.50;99.90;-2.10;101316;;;;556752;252;35277;-77
2022/01/18 06:15:29;;;;;;;4.53;1.47;;;-1.00;99.90;-2.10;101319;;;;561274;252;24135;-78
2022/01/18 06:17:58;;;;;;;2.30;1.20;;;-0.90;99.90;-2.00;101330;;;;576346;248;24144;-78
2022/01/18 06:20:27;;;;;;;2.90;1.13;;;-0.80;99.90;-2.00;101342;;;;556705;253;24117;-78
2022/01/18 06:22:55;;;;;;;3.07;1.47;;;-0.80;99.90;-1.90;101342;;;;551016;258;24172;-77
2022/01/18 06:25:23;;;;;;;4.57;1.73;;;-0.70;99.90;-1.80;101342;;;;555452;252;24128;-78
2022/01/18 06:27:54;;;;;;;13.07;6.70;;;-0.70;99.90;-1.70;101350;;;;550833;258;24202;-77
2022/01/18 06:30:19;;;;;;;35.42;27.27;;;-0.60;99.90;-1.60;101346;;;;552675;254;35528;-79
2022/01/18 06:32:49;;;;;;;10.10;7.53;;;-0.50;99.90;-1.60;101361;;;;557858;254;24144;-79
2022/01/18 06:35:14;;;;;;;10.20;4.13;;;-0.40;99.90;-1.50;101358;;;;565109;253;24101;-80
2022/01/18 06:37:42;;;;;;;16.07;4.33;;;-0.30;99.90;-1.40;101368;;;;556263;254;24104;-78
2022/01/18 06:40:11;;;;;;;11.27;3.00;;;-0.30;99.90;-1.30;101367;;;;563664;250;24115;-78
2022/01/18 06:42:39;;;;;;;18.60;6.97;;;-0.20;99.90;-1.30;101370;;;;565609;254;25172;-77
2022/01/18 06:45:07;;;;;;;15.70;6.20;;;-0.10;99.90;-1.30;101382;;;;557491;252;24121;-77
2022/01/18 06:47:36;;;;;;;8.03;2.37;;;-0.10;99.90;-1.20;101382;;;;557362;254;24112;-78
2022/01/18 06:50:04;;;;;;;5.17;3.07;;;0.00;99.90;-1.20;101396;;;;557656;254;24132;-78
2022/01/18 06:52:32;;;;;;;6.33;3.33;;;0.00;99.90;-1.20;101403;;;;570474;249;24096;-78
2022/01/18 06:55:01;;;;;;;2.70;2.50;;;0.00;99.90;-1.20;101401;;;;577453;249;24092;-79
2022/01/18 06:57:28;;;;;;;3.37;2.40;;;0.80;99.90;-1.20;101408;;;;568535;249;24121;-77
2022/01/18 06:59:56;;;;;;;7.53;4.10;;;0.00;99.90;-1.20;101404;;;;568848;249;24077;-77
2022/01/18 07:02:24;;;;;;;9.30;4.27;;;0.00;99.90;-1.20;101407;;;;570087;248;24099;-77
2022/01/18 07:04:52;;;;;;;9.40;3.97;;;0.00;99.90;-1.20;101407;;;;569664;249;24078;-77
2022/01/18 07:07:20;;;;;;;13.23;5.00;;;0.00;99.90;-1.20;101417;;;;569550;249;24077;-77
2022/01/18 07:09:48;;;;;;;4.53;3.40;;;0.00;99.90;-1.30;101421;;;;578289;248;24081;-81
2022/01/18 07:12:17;;;;;;;8.60;3.00;;;-0.10;99.90;-1.30;101416;;;;569539;249;24088;-79
2022/01/18 07:14:44;;;;;;;11.73;4.53;;;-0.10;99.90;-1.30;101425;;;;578109;248;24132;-80
2022/01/18 07:17:11;;;;;;;5.27;2.13;;;-0.10;99.90;-1.40;101431;;;;567658;245;25175;-78
2022/01/18 07:19:39;;;;;;;8.00;3.13;;;-0.20;99.90;-1.40;101440;;;;554031;256;24141;-82
2022/01/18 07:22:10;;;;;;;4.50;3.37;;;-0.20;99.90;-1.40;101434;;;;570096;247;24062;-82
2022/01/18 07:24:43;;;;;;;3.93;2.13;;;-0.20;99.90;-1.40;101436;;;;570220;248;24107;-81
2022/01/18 07:27:12;;;;;;;6.30;3.63;;;-0.20;99.90;-1.40;101439;;;;567191;250;24086;-82
2022/01/18 07:29:40;;;;;;;7.43;3.67;;;-0.20;99.90;-1.40;101437;;;;571657;249;24073;-81
2022/01/18 07:32:09;;;;;;;12.93;4.07;;;-0.20;99.90;-1.30;101450;;;;579479;244;24075;-80
2022/01/18 07:34:39;;;;;;;3.40;2.07;;;-0.20;99.90;-1.30;101450;;;;571114;248;24113;-81
2022/01/18 07:37:03;;;;;;;10.17;3.53;;;-0.20;99.90;-1.30;101451;;;;548629;254;24206;-82
2022/01/18 07:39:31;;;;;;;9.03;3.17;;;-0.20;99.90;-1.30;101450;;;;579004;243;24071;-82
2022/01/18 07:41:59;;;;;;;4.60;2.87;;;-0.10;99.90;-1.30;101460;;;;557039;254;24131;-83
2022/01/18 07:44:27;;;;;;;14.67;3.40;;;-0.10;99.90;-1.30;101459;;;;554154;252;24146;-81
2022/01/18 07:46:54;;;;;;;6.07;3.10;;;-0.10;99.90;-1.30;101466;;;;567418;247;24135;-82
2022/01/18 07:49:22;;;;;;;6.27;3.00;;;-0.10;99.90;-1.30;101464;;;;573402;250;24073;-82
2022/01/18 07:51:50;;;;;;;5.93;3.07;;;-0.10;99.90;-1.30;101476;;;;573363;244;24060;-81
2022/01/18 07:54:21;;;;;;;2.27;2.10;;;-0.10;99.90;-1.30;101477;;;;573877;250;24089;-82
2022/01/18 07:56:46;;;;;;;7.70;3.50;;;-0.10;99.90;-1.20;101483;;;;554306;254;24105;-82
2022/01/18 07:59:18;;;;;;;11.60;5.37;;;-0.20;99.90;-1.20;101485;;;;560145;250;35554;-82
2022/01/18 08:01:42;;;;;;;18.63;5.03;;;-0.10;99.90;-1.20;101491;;;;557147;248;23973;-82
2022/01/18 08:04:10;;;;;;;14.18;7.20;;;-0.10;99.90;-1.20;101502;;;;565385;249;35322;-83
2022/01/18 08:06:38;;;;;;;10.83;4.63;;;0.00;99.90;-1.10;101504;;;;570697;243;24237;-80
2022/01/18 08:09:09;;;;;;;8.50;3.77;;;0.00;99.90;-1.10;101514;;;;559805;251;24089;-82
2022/01/18 08:11:38;;;;;;;7.87;4.13;;;0.10;99.90;-1.00;101524;;;;569151;246;24083;-82
2022/01/18 08:14:05;;;;;;;8.63;3.30;;;0.30;99.90;-0.80;101535;;;;560021;254;24156;-81
2022/01/18 08:19:01;;;;;;;12.00;4.37;;;0.40;99.90;-0.60;101533;;;;556811;254;24166;-82
2022/01/18 08:21:31;;;;;;;6.90;3.90;;;0.50;99.90;-0.40;101539;;;;560250;250;24089;-83
2022/01/18 08:23:56;;;;;;;9.87;3.73;;;0.70;99.90;-0.20;101538;;;;563663;248;24107;-82
2022/01/18 08:26:24;;;;;;;4.47;3.07;;;0.90;99.90;0.00;101535;;;;564107;251;24124;-81
2022/01/18 08:28:52;;;;;;;7.40;3.37;;;1.10;99.90;0.10;101535;;;;571753;249;24088;-82
2022/01/18 08:31:20;;;;;;;4.80;3.80;;;1.20;99.90;0.20;101540;;;;569816;248;24155;-82
2022/01/18 08:33:52;;;;;;;9.47;3.40;;;1.40;99.90;0.30;101547;;;;563581;253;24145;-82
2022/01/18 08:36:20;;;;;;;8.47;4.07;;;1.50;99.90;0.50;101552;;;;563915;250;24164;-81
2022/01/18 08:38:46;;;;;;;11.33;4.70;;;1.60;99.90;0.60;101558;;;;549446;257;24352;-83
2022/01/18 08:41:15;;;;;;;10.40;4.90;;;1.70;99.90;0.80;101561;;;;551980;256;24174;-81
2022/01/18 08:43:40;;;;;;;7.10;3.27;;;1.90;99.90;0.90;101567;;;;563956;250;24129;-81
2022/01/18 08:46:08;;;;;;;9.53;4.60;;;2.10;99.90;1.00;101571;;;;542468;255;24162;-81
2022/01/18 08:48:40;;;;;;;12.30;3.93;;;2.10;99.90;1.10;101562;;;;572728;246;24114;-82
2022/01/18 08:51:04;;;;;;;9.53;3.57;;;2.20;99.90;1.10;101567;;;;568511;248;24097;-82
2022/01/18 08:53:35;;;;;;;8.80;3.87;;;2.30;99.90;1.10;101570;;;;565924;248;24106;-83
2022/01/18 08:56:00;;;;;;;7.50;4.27;;;2.20;99.90;1.00;101568;;;;571833;246;24079;-82
2022/01/18 08:58:28;;;;;;;5.30;3.43;;;2.20;99.90;0.90;101582;;;;577569;248;24139;-83
2022/01/18 09:00:56;;;;;;;5.63;2.50;;;2.10;99.90;1.00;101588;;;;577988;244;24137;-83
2022/01/18 09:03:28;;;;;;;7.70;3.73;;;2.20;99.90;1.00;101598;;;;579310;244;24092;-83
2022/01/18 09:05:56;;;;;;;10.17;3.70;;;2.10;99.90;1.00;101599;;;;578550;244;24064;-83
2022/01/18 09:08:22;;;;;;;6.33;3.40;;;2.20;99.90;1.10;101598;;;;578679;244;24071;-78
2022/01/18 09:10:53;;;;;;;9.17;4.50;;;2.30;99.90;1.20;101606;;;;569867;242;24196;-83
2022/01/18 09:13:22;;;;;;;9.63;3.97;;;2.30;99.90;1.20;101605;;;;573254;245;24097;-82
2022/01/18 09:15:50;;;;;;;6.17;3.80;;;2.40;99.90;1.20;101604;;;;558688;253;24141;-82
2022/01/18 09:18:14;;;;;;;8.37;4.90;;;2.40;99.90;1.20;101609;;;;561799;251;24128;-85
2022/01/18 09:20:43;;;;;;;10.17;3.73;;;2.40;99.90;1.20;101622;;;;572023;247;24083;-82
2022/01/18 09:23:10;;;;;;;5.53;3.70;;;2.40;99.90;1.20;101613;;;;570241;249;24079;-83
2022/01/18 09:25:42;;;;;;;6.07;3.13;;;2.40;99.90;1.10;101612;;;;575418;248;24083;-80
2022/01/18 09:28:10;;;;;;;12.30;4.07;;;2.30;99.90;1.00;101626;;;;564001;247;24113;-81
2022/01/18 09:30:35;;;;;;;9.37;2.93;;;2.20;99.90;1.00;101623;;;;575303;248;24140;-82
2022/01/18 09:33:06;;;;;;;10.03;4.20;;;2.20;99.90;1.00;101625;;;;556968;252;24115;-84
2022/01/18 09:35:31;;;;;;;10.77;3.60;;;2.20;99.90;1.00;101621;;;;571336;251;24184;-80
2022/01/18 09:38:01;;;;;;;5.23;3.47;;;2.20;99.90;1.00;101620;;;;571027;250;24088;-85
2022/01/18 09:40:26;;;;;;;11.23;4.43;;;2.20;99.90;1.00;101621;;;;565796;249;24097;-83
2022/01/18 09:42:59;;;;;;;9.43;4.23;;;2.20;99.90;1.00;101624;;;;571665;246;24136;-84
2022/01/18 09:45:26;;;;;;;7.47;2.83;;;2.10;99.90;1.00;101625;;;;572547;249;24110;-85
2022/01/18 09:47:51;;;;;;;9.23;3.97;;;2.20;99.90;1.00;101627;;;;571283;247;24101;-83
2022/01/18 09:50:22;;;;;;;11.70;4.33;;;2.20;99.90;1.00;101622;;;;565262;251;24151;-83
2022/01/18 09:52:53;;;;;;;4.33;2.67;;;2.20;99.90;1.00;101624;;;;564650;250;24092;-85
2022/01/18 09:55:18;;;;;;;5.20;2.63;;;2.20;99.90;1.00;101628;;;;570390;249;24084;-81
2022/01/18 09:57:46;;;;;;;4.00;3.00;;;2.20;99.90;1.00;101619;;;;575726;246;24084;-81
2022/01/18 10:00:14;;;;;;;3.67;2.27;;;2.20;99.90;1.00;101620;;;;565048;245;24092;-81
2022/01/18 10:02:42;;;;;;;1.93;1.60;;;2.20;99.90;1.00;101618;;;;565660;248;24132;-81
2022/01/18 10:05:28;;;;;;;5.87;3.27;;;2.20;99.90;1.00;101626;;;;554912;252;24211;-82
2022/01/18 10:08:01;;;;;;;6.43;2.70;;;2.20;99.90;1.00;101626;;;;574433;249;24083;-83
2022/01/18 10:10:44;;;;;;;6.00;2.13;;;2.20;99.90;1.00;101642;;;;567089;248;24145;-83
2022/01/18 10:13:17;;;;;;;4.83;2.80;;;2.20;99.90;1.00;101636;;;;553459;255;24099;-82
2022/01/18 10:16:04;;;;;;;6.20;2.87;;;2.10;99.90;1.00;101634;;;;550880;254;24139;-81
2022/01/18 10:18:39;;;;;;;8.10;2.30;;;2.10;99.90;1.00;101637;;;;564535;248;24124;-84
2022/01/18 10:21:01;;;;;;;5.73;2.10;;;2.10;99.90;1.00;101650;;;;555662;252;25267;-83
2022/01/18 10:23:29;;;;;;;10.17;2.77;;;2.10;99.90;0.90;101641;;;;551402;256;24204;-81
2022/01/18 10:25:59;;;;;;;8.23;2.97;;;2.10;99.90;0.90;101645;;;;568521;249;24096;-84
2022/01/18 10:28:34;;;;;;;5.73;2.53;;;2.10;99.90;1.00;101644;;;;560169;250;24108;-82
2022/01/18 10:31:06;;;;;;;6.97;2.70;;;2.10;99.90;1.00;101657;;;;568586;249;24071;-83
2022/01/18 10:33:37;;;;;;;6.20;2.27;;;2.10;99.90;0.90;101654;;;;568817;248;24159;-82
2022/01/18 10:36:12;;;;;;;4.27;2.03;;;2.10;99.90;1.00;101648;;;;569956;242;24097;-81
2022/01/18 10:38:41;;;;;;;5.10;1.90;;;2.10;99.90;1.00;101646;;;;565569;243;24113;-81
2022/01/18 10:41:30;;;;;;;4.40;2.40;;;2.20;99.90;1.00;101653;;;;551908;255;24174;-81
2022/01/18 10:44:11;;;;;;;6.07;2.60;;;2.20;99.90;1.00;101651;;;;559825;252;24144;-82
2022/01/18 10:46:41;;;;;;;2.90;1.67;;;2.20;99.90;1.00;101636;;;;566984;248;24144;-81
2022/01/18 10:49:14;;;;;;;7.60;2.07;;;2.20;99.90;1.00;101637;;;;567874;249;24119;-81
2022/01/18 10:51:40;;;;;;;3.13;1.47;;;2.10;99.90;1.00;101649;;;;566544;247;24107;-82
2022/01/18 10:54:07;;;;;;;3.17;1.73;;;2.10;99.90;1.00;101650;;;;560983;252;24130;-84
2022/01/18 10:56:44;;;;;;;5.43;3.03;;;2.10;99.90;1.00;101652;;;;558252;243;35075;-84
2022/01/18 10:59:24;;;;;;;5.43;2.43;;;2.10;99.90;1.00;101656;;;;580304;243;24122;-84
2022/01/18 11:02:16;;;;;;;8.13;2.80;;;2.10;99.90;1.00;101660;;;;570218;244;24142;-85
2022/01/18 11:04:50;;;;;;;3.37;1.90;;;2.10;99.90;1.00;101658;;;;562628;252;24128;-83
2022/01/18 11:07:18;;;;;;;9.20;2.60;;;2.10;99.90;1.00;101647;;;;573763;243;24115;-83
2022/01/18 11:09:47;;;;;;;7.07;2.30;;;2.10;99.90;1.00;101651;;;;577178;243;24073;-84
2022/01/18 11:12:19;;;;;;;11.73;2.97;;;2.20;99.90;1.00;101641;;;;579602;243;24119;-83
2022/01/18 11:14:46;;;;;;;3.27;1.90;;;2.20;99.90;1.00;101633;;;;566136;250;24118;-81
2022/01/18 11:17:25;;;;;;;2.17;1.30;;;2.10;99.90;1.00;101639;;;;568480;249;24077;-82
2022/01/18 11:19:52;;;;;;;5.50;2.23;;;2.20;99.90;1.00;101624;;;;556109;257;24171;-81
2022/01/18 11:22:16;;;;;;;3.03;1.37;;;2.10;99.90;1.00;101629;;;;571135;246;24129;-83
2022/01/18 11:24:48;;;;;;;6.27;3.07;;;2.20;99.90;1.00;101627;;;;566632;250;24149;-84
2022/01/18 11:27:14;;;;;;;4.13;2.30;;;2.10;99.90;1.00;101622;;;;566546;248;24106;-84
2022/01/18 11:29:44;;;;;;;10.87;5.20;;;2.20;99.90;1.10;101620;;;;566706;249;24188;-83
2022/01/18 11:32:12;;;;;;;8.07;3.33;;;2.20;99.90;1.10;101629;;;;564806;249;24106;-83
2022/01/18 11:34:42;;;;;;;3.07;2.17;;;2.20;99.90;1.10;101628;;;;568820;249;24149;-83
2022/01/18 11:37:21;;;;;;;7.90;2.40;;;2.30;99.90;1.10;101639;;;;573998;243;24175;-83
2022/01/18 11:39:49;;;;;;;4.53;1.60;;;2.30;99.90;1.20;101642;;;;580554;243;24109;-83
2022/01/18 11:42:20;;;;;;;4.63;1.27;;;2.30;99.90;1.20;101651;;;;559524;248;24124;-84
2022/01/18 11:44:46;;;;;;;4.87;1.87;;;2.30;99.90;1.20;101648;;;;564064;250;24172;-84
2022/01/18 11:47:14;;;;;;;8.60;3.00;;;2.30;99.90;1.20;101648;;;;567283;247;24143;-83
2022/01/18 11:49:41;;;;;;;13.37;1.77;;;2.30;99.90;1.20;101641;;;;564433;243;24179;-85
2022/01/18 11:52:11;;;;;;;3.63;2.27;;;2.30;99.90;1.20;101637;;;;566167;243;25308;-84
2022/01/18 11:57:23;;;;;;;2.60;1.63;;;2.30;99.90;1.30;101635;;;;558718;251;24155;-85
2022/01/18 12:00:00;;;;;;;2.23;1.40;;;2.30;99.90;1.30;101649;;;;562475;252;24105;-83
2022/01/18 12:02:44;;;;;;;3.47;1.97;;;2.30;99.90;1.30;101632;;;;580303;244;24122;-83
2022/01/18 12:05:20;;;;;;;2.80;1.60;;;2.40;99.90;1.30;101636;;;;586539;243;24098;-83
2022/01/18 12:07:49;;;;;;;3.40;2.00;;;2.40;99.90;1.30;101631;;;;565508;250;24158;-83
2022/01/18 12:10:42;;;;;;;3.87;2.43;;;2.40;99.90;1.30;101636;;;;568083;249;24114;-79
2022/01/18 12:13:13;;;;;;;2.67;1.93;;;2.40;99.90;1.30;101633;;;;563461;249;24161;-81
2022/01/18 12:15:46;;;;;;;3.27;2.57;;;2.40;99.90;1.40;101631;;;;575919;244;24138;-84
2022/01/18 12:18:25;;;;;;;2.87;2.00;;;2.40;99.90;1.30;101635;;;;565042;248;24111;-82
2022/01/18 12:20:55;;;;;;;3.87;1.67;;;2.40;99.90;1.40;101636;;;;555869;252;25172;-81
2022/01/18 12:23:47;;;;;;;2.20;1.60;;;2.40;99.90;1.40;101638;;;;567505;247;24144;-80
2022/01/18 12:26:31;;;;;;;1.83;1.40;;;2.40;99.90;1.40;101632;;;;562596;244;24112;-82